TOM8LM LERS-EGCC
Flight info
| Callsign | TOM8LM |
|---|---|
| Flight time | 2h 1m |
| Altitude | 36000 |
| Route | NATPI DCT EVNAM DCT TUPAR UN861 ANG DCT AKIKI UN867 AVANT UM184 HEMEL T420 ELVOS |
| Aircraft | B738/M-SDE2E3FGHIRWXY/LB1 |
Departure
| Time | 2026-04-25 06:42 |
|---|---|
| Airport | Reus Airport (LERS) |
Arrival
| Time | 2026-04-25 08:44 |
|---|---|
| Airport | Manchester Airport (EGCC) |
| Time | Latitude | Longitude | Altitude | Speed | Heading |
|---|---|---|---|---|---|
| 2026-04-25 06:31 | 41.14699 | 1.15681 | 241 ft | 0 kts | 339° |
| 2026-04-25 06:37 | 41.14697 | 1.15682 | 241 ft | 3 kts | 339° |
| 2026-04-25 06:38 | 41.14672 | 1.15695 | 241 ft | 4 kts | 336° |
| 2026-04-25 06:38 | 41.14647 | 1.15710 | 241 ft | 4 kts | 332° |
| 2026-04-25 06:38 | 41.14624 | 1.15728 | 241 ft | 3 kts | 327° |
| 2026-04-25 06:38 | 41.14616 | 1.15735 | 241 ft | 0 kts | 326° |
| 2026-04-25 06:40 | 41.14621 | 1.15728 | 241 ft | 5 kts | 305° |
| 2026-04-25 06:40 | 41.14612 | 1.15673 | 241 ft | 5 kts | 246° |
| 2026-04-25 06:41 | 41.14594 | 1.15620 | 241 ft | 7 kts | 246° |
| 2026-04-25 06:41 | 41.14566 | 1.15571 | 241 ft | 7 kts | 209° |
| 2026-04-25 06:41 | 41.14504 | 1.15584 | 241 ft | 16 kts | 156° |
| 2026-04-25 06:41 | 41.14445 | 1.15701 | 241 ft | 18 kts | 77° |
| 2026-04-25 06:42 | 41.14494 | 1.15872 | 241 ft | 34 kts | 68° |
| 2026-04-25 06:42 | 41.14668 | 1.16465 | 241 ft | 104 kts | 69° |
| 2026-04-25 06:42 | 41.15008 | 1.17620 | 274 ft | 159 kts | 68° |
| 2026-04-25 06:42 | 41.15420 | 1.19019 | 894 ft | 166 kts | 68° |
| 2026-04-25 06:43 | 41.15842 | 1.20443 | 1648 ft | 170 kts | 68° |
| 2026-04-25 06:43 | 41.16314 | 1.22026 | 1968 ft | 200 kts | 68° |
| 2026-04-25 06:43 | 41.16861 | 1.23850 | 2188 ft | 225 kts | 68° |
| 2026-04-25 06:43 | 41.17465 | 1.25859 | 2458 ft | 247 kts | 68° |
| 2026-04-25 06:44 | 41.18127 | 1.28050 | 3002 ft | 260 kts | 68° |
| 2026-04-25 06:44 | 41.18806 | 1.30294 | 3829 ft | 263 kts | 68° |
| 2026-04-25 06:44 | 41.19493 | 1.32559 | 4672 ft | 265 kts | 67° |
| 2026-04-25 06:44 | 41.20183 | 1.34833 | 5500 ft | 267 kts | 67° |
| 2026-04-25 06:45 | 41.21001 | 1.37028 | 6276 ft | 270 kts | 50° |
| 2026-04-25 06:45 | 41.22481 | 1.38519 | 7075 ft | 270 kts | 21° |
| 2026-04-25 06:45 | 41.24331 | 1.38921 | 7809 ft | 274 kts | 355° |
| 2026-04-25 06:45 | 41.26162 | 1.38151 | 8522 ft | 281 kts | 328° |
| 2026-04-25 06:46 | 41.27573 | 1.36348 | 9251 ft | 286 kts | 305° |
| 2026-04-25 06:46 | 41.28441 | 1.33945 | 10013 ft | 290 kts | 291° |
| 2026-04-25 06:46 | 41.29077 | 1.31364 | 10564 ft | 302 kts | 288° |
| 2026-04-25 06:46 | 41.29723 | 1.28589 | 10740 ft | 325 kts | 289° |
| 2026-04-25 06:47 | 41.30439 | 1.25642 | 11025 ft | 342 kts | 289° |
| 2026-04-25 06:47 | 41.31204 | 1.22609 | 11635 ft | 348 kts | 290° |
| 2026-04-25 06:47 | 41.32028 | 1.19565 | 12337 ft | 350 kts | 296° |
| 2026-04-25 06:47 | 41.33465 | 1.16976 | 13041 ft | 351 kts | 320° |
| 2026-04-25 06:48 | 41.35535 | 1.15284 | 13760 ft | 352 kts | 339° |
| 2026-04-25 06:48 | 41.37901 | 1.14582 | 14421 ft | 356 kts | 355° |
| 2026-04-25 06:48 | 41.40386 | 1.14321 | 15098 ft | 360 kts | 356° |
| 2026-04-25 06:48 | 41.42905 | 1.14111 | 15784 ft | 364 kts | 356° |
| 2026-04-25 06:49 | 41.45446 | 1.13893 | 16472 ft | 368 kts | 356° |
| 2026-04-25 06:49 | 41.48015 | 1.13647 | 17133 ft | 372 kts | 356° |
| 2026-04-25 06:49 | 41.50604 | 1.13381 | 17780 ft | 375 kts | 356° |
| 2026-04-25 06:49 | 41.53223 | 1.13108 | 18404 ft | 379 kts | 356° |
| 2026-04-25 06:50 | 41.55856 | 1.13292 | 18982 ft | 382 kts | 13° |
| 2026-04-25 06:50 | 41.58447 | 1.14154 | 19612 ft | 385 kts | 14° |
| 2026-04-25 06:50 | 41.61059 | 1.15050 | 20169 ft | 389 kts | 14° |
| 2026-04-25 06:50 | 41.63700 | 1.15948 | 20733 ft | 393 kts | 14° |
| 2026-04-25 06:51 | 41.65458 | 1.16539 | 21105 ft | 395 kts | 14° |
| 2026-04-25 06:51 | 41.69016 | 1.17720 | 21811 ft | 400 kts | 14° |
| 2026-04-25 06:51 | 41.71726 | 1.18612 | 22355 ft | 402 kts | 14° |
| 2026-04-25 06:51 | 41.74462 | 1.19507 | 22829 ft | 407 kts | 13° |
| 2026-04-25 06:52 | 41.77231 | 1.20412 | 23325 ft | 410 kts | 13° |
| 2026-04-25 06:52 | 41.78974 | 1.20982 | 23635 ft | 411 kts | 13° |
| 2026-04-25 06:52 | 41.81771 | 1.21896 | 24107 ft | 414 kts | 13° |
| 2026-04-25 06:52 | 41.84585 | 1.22817 | 24560 ft | 418 kts | 13° |
| 2026-04-25 06:53 | 41.87413 | 1.23742 | 25001 ft | 420 kts | 13° |
| 2026-04-25 06:53 | 41.90266 | 1.24678 | 25452 ft | 423 kts | 13° |
| 2026-04-25 06:53 | 41.93135 | 1.25619 | 25873 ft | 425 kts | 13° |
| 2026-04-25 06:53 | 41.96018 | 1.26566 | 26284 ft | 428 kts | 13° |
| 2026-04-25 06:54 | 41.98925 | 1.27521 | 26668 ft | 430 kts | 13° |
| 2026-04-25 06:54 | 42.01844 | 1.28482 | 27084 ft | 432 kts | 13° |
| 2026-04-25 06:54 | 42.04777 | 1.29449 | 27459 ft | 435 kts | 13° |
| 2026-04-25 06:54 | 42.07729 | 1.30422 | 27815 ft | 438 kts | 13° |
| 2026-04-25 06:55 | 42.10657 | 1.31389 | 28166 ft | 440 kts | 13° |
| 2026-04-25 06:55 | 42.13641 | 1.32375 | 28513 ft | 442 kts | 13° |
| 2026-04-25 06:55 | 42.16637 | 1.33366 | 28854 ft | 444 kts | 13° |
| 2026-04-25 06:55 | 42.19648 | 1.34357 | 29190 ft | 446 kts | 12° |
| 2026-04-25 06:56 | 42.22727 | 1.34816 | 29453 ft | 448 kts | 355° |
| 2026-04-25 06:56 | 42.25800 | 1.34157 | 29807 ft | 448 kts | 349° |
| 2026-04-25 06:56 | 42.28868 | 1.33399 | 30121 ft | 449 kts | 349° |
| 2026-04-25 06:56 | 42.31956 | 1.32666 | 30405 ft | 451 kts | 349° |
| 2026-04-25 06:57 | 42.35062 | 1.31952 | 30752 ft | 451 kts | 349° |
| 2026-04-25 06:57 | 42.38152 | 1.31258 | 31160 ft | 450 kts | 350° |
| 2026-04-25 06:57 | 42.41236 | 1.30571 | 31537 ft | 449 kts | 350° |
| 2026-04-25 06:57 | 42.44315 | 1.29888 | 31883 ft | 449 kts | 350° |
| 2026-04-25 06:58 | 42.47401 | 1.29201 | 32234 ft | 448 kts | 350° |
| 2026-04-25 06:58 | 42.50475 | 1.28517 | 32593 ft | 448 kts | 350° |
| 2026-04-25 06:58 | 42.53549 | 1.27831 | 32958 ft | 446 kts | 350° |
| 2026-04-25 06:58 | 42.56609 | 1.27146 | 33283 ft | 446 kts | 350° |
| 2026-04-25 06:59 | 42.59669 | 1.26460 | 33578 ft | 446 kts | 350° |
| 2026-04-25 06:59 | 42.62729 | 1.25774 | 33894 ft | 446 kts | 350° |
| 2026-04-25 06:59 | 42.65788 | 1.25087 | 34232 ft | 445 kts | 350° |
| 2026-04-25 06:59 | 42.68837 | 1.24402 | 34532 ft | 444 kts | 349° |
| 2026-04-25 07:00 | 42.71846 | 1.23725 | 34775 ft | 445 kts | 350° |
| 2026-04-25 07:00 | 42.74912 | 1.23135 | 35037 ft | 445 kts | 352° |
| 2026-04-25 07:00 | 42.77994 | 1.22686 | 35329 ft | 444 kts | 354° |
| 2026-04-25 07:00 | 42.81066 | 1.22297 | 35631 ft | 443 kts | 354° |
| 2026-04-25 07:01 | 42.84139 | 1.21919 | 35867 ft | 444 kts | 354° |
| 2026-04-25 07:01 | 42.87219 | 1.21533 | 36088 ft | 444 kts | 354° |
| 2026-04-25 07:01 | 42.90307 | 1.21135 | 36160 ft | 447 kts | 354° |
| 2026-04-25 07:02 | 42.96489 | 1.20302 | 36164 ft | 445 kts | 353° |
| 2026-04-25 07:02 | 43.02620 | 1.19456 | 36173 ft | 442 kts | 353° |
| 2026-04-25 07:03 | 43.08722 | 1.18610 | 36173 ft | 440 kts | 353° |
| 2026-04-25 07:03 | 43.14802 | 1.17766 | 36179 ft | 438 kts | 353° |
| 2026-04-25 07:04 | 43.20841 | 1.16926 | 36177 ft | 438 kts | 353° |
| 2026-04-25 07:04 | 43.26915 | 1.16085 | 36181 ft | 439 kts | 353° |
| 2026-04-25 07:05 | 43.33010 | 1.15237 | 36180 ft | 441 kts | 353° |
| 2026-04-25 07:05 | 43.39129 | 1.14379 | 36187 ft | 443 kts | 353° |
| 2026-04-25 07:06 | 43.45284 | 1.13523 | 36193 ft | 445 kts | 353° |
| 2026-04-25 07:06 | 43.51419 | 1.12662 | 36188 ft | 446 kts | 353° |
| 2026-04-25 07:07 | 43.57604 | 1.11793 | 36186 ft | 447 kts | 352° |
| 2026-04-25 07:07 | 43.63594 | 1.09686 | 36188 ft | 443 kts | 336° |
| 2026-04-25 07:08 | 43.69247 | 1.06267 | 36181 ft | 444 kts | 334° |
| 2026-04-25 07:08 | 43.74890 | 1.02791 | 36186 ft | 444 kts | 335° |
| 2026-04-25 07:09 | 43.80551 | 0.99350 | 36173 ft | 444 kts | 335° |
| 2026-04-25 07:09 | 43.86177 | 0.95960 | 36173 ft | 444 kts | 335° |
| 2026-04-25 07:10 | 43.91842 | 0.92550 | 36178 ft | 443 kts | 335° |
| 2026-04-25 07:10 | 43.97485 | 0.89147 | 36173 ft | 442 kts | 335° |
| 2026-04-25 07:11 | 44.03112 | 0.85744 | 36183 ft | 440 kts | 335° |
| 2026-04-25 07:11 | 44.08729 | 0.82338 | 36184 ft | 440 kts | 335° |
| 2026-04-25 07:12 | 44.14349 | 0.78924 | 36180 ft | 440 kts | 335° |
| 2026-04-25 07:12 | 44.22765 | 0.73801 | 36187 ft | 439 kts | 334° |
| 2026-04-25 07:13 | 44.28328 | 0.70403 | 36183 ft | 440 kts | 334° |
| 2026-04-25 07:13 | 44.33935 | 0.66975 | 36186 ft | 440 kts | 334° |
| 2026-04-25 07:14 | 44.39541 | 0.63537 | 36183 ft | 440 kts | 334° |
| 2026-04-25 07:14 | 44.45154 | 0.60087 | 36180 ft | 441 kts | 334° |
| 2026-04-25 07:15 | 44.50776 | 0.56624 | 36173 ft | 441 kts | 334° |
| 2026-04-25 07:15 | 44.56407 | 0.53150 | 36171 ft | 442 kts | 334° |
| 2026-04-25 07:16 | 44.61997 | 0.49694 | 36164 ft | 442 kts | 334° |
| 2026-04-25 07:16 | 44.67616 | 0.46212 | 36167 ft | 441 kts | 334° |
| 2026-04-25 07:17 | 44.73237 | 0.42720 | 36154 ft | 442 kts | 334° |
| 2026-04-25 07:17 | 44.78871 | 0.39215 | 36160 ft | 442 kts | 334° |
| 2026-04-25 07:18 | 44.84492 | 0.35708 | 36155 ft | 442 kts | 334° |
| 2026-04-25 07:18 | 44.90117 | 0.32194 | 36158 ft | 441 kts | 334° |
| 2026-04-25 07:19 | 44.95727 | 0.28683 | 36156 ft | 441 kts | 334° |
| 2026-04-25 07:19 | 45.01301 | 0.25185 | 36154 ft | 441 kts | 334° |
| 2026-04-25 07:20 | 45.06909 | 0.21656 | 36161 ft | 441 kts | 334° |
| 2026-04-25 07:20 | 45.12528 | 0.18113 | 36155 ft | 441 kts | 334° |
| 2026-04-25 07:21 | 45.18139 | 0.14565 | 36155 ft | 441 kts | 334° |
| 2026-04-25 07:21 | 45.23703 | 0.11043 | 36155 ft | 440 kts | 334° |
| 2026-04-25 07:22 | 45.29303 | 0.07494 | 36159 ft | 440 kts | 334° |
| 2026-04-25 07:22 | 45.34891 | 0.03940 | 36155 ft | 440 kts | 334° |
| 2026-04-25 07:23 | 45.40479 | 0.00379 | 36161 ft | 440 kts | 334° |
| 2026-04-25 07:23 | 45.46031 | -0.03166 | 36143 ft | 440 kts | 333° |
| 2026-04-25 07:24 | 45.51627 | -0.06748 | 36159 ft | 441 kts | 333° |
| 2026-04-25 07:24 | 45.57240 | -0.10350 | 36161 ft | 442 kts | 333° |
| 2026-04-25 07:25 | 45.62878 | -0.13975 | 36163 ft | 445 kts | 333° |
| 2026-04-25 07:25 | 45.68531 | -0.17615 | 36161 ft | 447 kts | 333° |
| 2026-04-25 07:26 | 45.74214 | -0.21285 | 36158 ft | 448 kts | 333° |
| 2026-04-25 07:26 | 45.79871 | -0.24945 | 36157 ft | 449 kts | 333° |
| 2026-04-25 07:27 | 45.85578 | -0.28647 | 36159 ft | 450 kts | 333° |
| 2026-04-25 07:27 | 45.91280 | -0.32353 | 36154 ft | 450 kts | 333° |
| 2026-04-25 07:28 | 45.96987 | -0.36070 | 36152 ft | 449 kts | 333° |
| 2026-04-25 07:28 | 46.02677 | -0.39782 | 36143 ft | 448 kts | 333° |
| 2026-04-25 07:29 | 46.08353 | -0.43499 | 36148 ft | 447 kts | 333° |
| 2026-04-25 07:29 | 46.14013 | -0.47215 | 36143 ft | 447 kts | 333° |
| 2026-04-25 07:30 | 46.19660 | -0.50927 | 36145 ft | 446 kts | 333° |
| 2026-04-25 07:30 | 46.25276 | -0.54629 | 36130 ft | 446 kts | 333° |
| 2026-04-25 07:31 | 46.30916 | -0.58355 | 36144 ft | 445 kts | 333° |
| 2026-04-25 07:31 | 46.36552 | -0.62086 | 36145 ft | 445 kts | 333° |
| 2026-04-25 07:32 | 46.42232 | -0.65712 | 36125 ft | 447 kts | 339° |
| 2026-04-25 07:32 | 46.48370 | -0.67412 | 36150 ft | 451 kts | 352° |
| 2026-04-25 07:33 | 46.54585 | -0.68355 | 36136 ft | 452 kts | 352° |
| 2026-04-25 07:33 | 46.60842 | -0.69327 | 36126 ft | 452 kts | 352° |
| 2026-04-25 07:34 | 46.67099 | -0.70354 | 36129 ft | 453 kts | 351° |
| 2026-04-25 07:34 | 46.73374 | -0.71414 | 36131 ft | 453 kts | 351° |
| 2026-04-25 07:35 | 46.79649 | -0.72479 | 36133 ft | 454 kts | 351° |
| 2026-04-25 07:35 | 46.85922 | -0.73545 | 36131 ft | 454 kts | 351° |
| 2026-04-25 07:36 | 46.92202 | -0.74615 | 36125 ft | 454 kts | 351° |
| 2026-04-25 07:36 | 46.98443 | -0.75677 | 36126 ft | 454 kts | 351° |
| 2026-04-25 07:37 | 47.04717 | -0.76748 | 36131 ft | 454 kts | 351° |
| 2026-04-25 07:37 | 47.10991 | -0.77821 | 36138 ft | 454 kts | 351° |
| 2026-04-25 07:38 | 47.17265 | -0.78895 | 36129 ft | 454 kts | 351° |
| 2026-04-25 07:38 | 47.23545 | -0.79976 | 36143 ft | 454 kts | 351° |
| 2026-04-25 07:39 | 47.29823 | -0.81059 | 36144 ft | 454 kts | 351° |
| 2026-04-25 07:39 | 47.36054 | -0.82137 | 36140 ft | 454 kts | 351° |
| 2026-04-25 07:40 | 47.42332 | -0.83225 | 36152 ft | 454 kts | 351° |
| 2026-04-25 07:40 | 47.48613 | -0.84316 | 36148 ft | 454 kts | 351° |
| 2026-04-25 07:41 | 47.54888 | -0.85441 | 36148 ft | 454 kts | 349° |
| 2026-04-25 07:41 | 47.61106 | -0.87005 | 36143 ft | 453 kts | 347° |
| 2026-04-25 07:42 | 47.66263 | -0.88444 | 36156 ft | 453 kts | 347° |
| 2026-04-25 07:42 | 47.73468 | -0.90426 | 36159 ft | 453 kts | 347° |
| 2026-04-25 07:43 | 47.78669 | -0.91824 | 36158 ft | 453 kts | 347° |
| 2026-04-25 07:43 | 47.84884 | -0.93484 | 36157 ft | 454 kts | 347° |
| 2026-04-25 07:44 | 47.91056 | -0.95134 | 36155 ft | 454 kts | 347° |
| 2026-04-25 07:44 | 47.97271 | -0.96799 | 36161 ft | 454 kts | 347° |
| 2026-04-25 07:45 | 48.03501 | -0.98472 | 36156 ft | 454 kts | 347° |
| 2026-04-25 07:45 | 48.09721 | -1.00149 | 36162 ft | 454 kts | 347° |
| 2026-04-25 07:46 | 48.15952 | -1.01834 | 36154 ft | 454 kts | 347° |
| 2026-04-25 07:46 | 48.22164 | -1.03515 | 36156 ft | 453 kts | 347° |
| 2026-04-25 07:47 | 48.28376 | -1.05202 | 36158 ft | 453 kts | 347° |
| 2026-04-25 07:47 | 48.34547 | -1.06882 | 36158 ft | 453 kts | 347° |
| 2026-04-25 07:48 | 48.40752 | -1.08577 | 36152 ft | 453 kts | 347° |
| 2026-04-25 07:48 | 48.46949 | -1.10270 | 36158 ft | 452 kts | 347° |
| 2026-04-25 07:49 | 48.53144 | -1.11968 | 36167 ft | 452 kts | 347° |
| 2026-04-25 07:49 | 48.59337 | -1.13675 | 36166 ft | 452 kts | 347° |
| 2026-04-25 07:50 | 48.65485 | -1.15369 | 36168 ft | 452 kts | 347° |
| 2026-04-25 07:50 | 48.71677 | -1.17078 | 36164 ft | 452 kts | 347° |
| 2026-04-25 07:51 | 48.77874 | -1.18793 | 36175 ft | 452 kts | 347° |
| 2026-04-25 07:51 | 48.84059 | -1.20511 | 36175 ft | 452 kts | 347° |
| 2026-04-25 07:52 | 48.90248 | -1.22234 | 36175 ft | 452 kts | 347° |
| 2026-04-25 07:52 | 48.96445 | -1.23961 | 36174 ft | 452 kts | 347° |
| 2026-04-25 07:53 | 49.02632 | -1.25691 | 36176 ft | 452 kts | 347° |
| 2026-04-25 07:53 | 49.08772 | -1.27415 | 36171 ft | 452 kts | 347° |
| 2026-04-25 07:54 | 49.14954 | -1.29155 | 36177 ft | 451 kts | 347° |
| 2026-04-25 07:54 | 49.21141 | -1.30900 | 36175 ft | 451 kts | 347° |
| 2026-04-25 07:55 | 49.27263 | -1.32628 | 36179 ft | 450 kts | 347° |
| 2026-04-25 07:55 | 49.33428 | -1.34373 | 36176 ft | 450 kts | 347° |
| 2026-04-25 07:56 | 49.39588 | -1.36125 | 36184 ft | 449 kts | 347° |
| 2026-04-25 07:56 | 49.45738 | -1.37879 | 36183 ft | 449 kts | 347° |
| 2026-04-25 07:57 | 49.51885 | -1.39633 | 36185 ft | 449 kts | 347° |
| 2026-04-25 07:57 | 49.58001 | -1.41357 | 36184 ft | 450 kts | 349° |
| 2026-04-25 07:58 | 49.64284 | -1.41448 | 36190 ft | 453 kts | 1° |
| 2026-04-25 07:58 | 49.70577 | -1.40751 | 36182 ft | 454 kts | 2° |
| 2026-04-25 07:59 | 49.76878 | -1.40101 | 36184 ft | 453 kts | 1° |
| 2026-04-25 07:59 | 49.83187 | -1.39522 | 36184 ft | 453 kts | 1° |
| 2026-04-25 08:00 | 49.89489 | -1.38956 | 36183 ft | 453 kts | 1° |
| 2026-04-25 08:00 | 49.95748 | -1.38386 | 36182 ft | 453 kts | 1° |
| 2026-04-25 08:01 | 50.02050 | -1.37665 | 36191 ft | 455 kts | 5° |
| 2026-04-25 08:01 | 50.08315 | -1.36118 | 36199 ft | 456 kts | 7° |
| 2026-04-25 08:02 | 50.14577 | -1.34446 | 36195 ft | 456 kts | 7° |
| 2026-04-25 08:02 | 50.20808 | -1.32858 | 36192 ft | 456 kts | 7° |
| 2026-04-25 08:03 | 50.27083 | -1.31298 | 36195 ft | 456 kts | 7° |
| 2026-04-25 08:03 | 50.33348 | -1.29742 | 36202 ft | 456 kts | 7° |
| 2026-04-25 08:04 | 50.39604 | -1.28182 | 36205 ft | 455 kts | 7° |
| 2026-04-25 08:04 | 50.45860 | -1.26614 | 36200 ft | 455 kts | 7° |
| 2026-04-25 08:05 | 50.51934 | -1.23848 | 36207 ft | 458 kts | 24° |
| 2026-04-25 08:05 | 50.57364 | -1.18701 | 36205 ft | 459 kts | 32° |
| 2026-04-25 08:06 | 50.62705 | -1.13210 | 36210 ft | 458 kts | 32° |
| 2026-04-25 08:06 | 50.68072 | -1.07786 | 36215 ft | 458 kts | 31° |
| 2026-04-25 08:07 | 50.73461 | -1.02387 | 36211 ft | 458 kts | 31° |
| 2026-04-25 08:07 | 50.78845 | -0.96981 | 36213 ft | 459 kts | 31° |
| 2026-04-25 08:08 | 50.84474 | -0.92322 | 36216 ft | 455 kts | 17° |
| 2026-04-25 08:08 | 50.90501 | -0.89251 | 36222 ft | 455 kts | 15° |
| 2026-04-25 08:09 | 50.96546 | -0.86243 | 36221 ft | 455 kts | 15° |
| 2026-04-25 08:09 | 51.02588 | -0.83159 | 36225 ft | 456 kts | 16° |
| 2026-04-25 08:10 | 51.08587 | -0.80045 | 36221 ft | 456 kts | 16° |
| 2026-04-25 08:10 | 51.14625 | -0.76890 | 36220 ft | 456 kts | 16° |
| 2026-04-25 08:11 | 51.20652 | -0.73738 | 36233 ft | 455 kts | 16° |
| 2026-04-25 08:11 | 51.26664 | -0.70583 | 36238 ft | 455 kts | 16° |
| 2026-04-25 08:12 | 51.32679 | -0.67419 | 36236 ft | 454 kts | 16° |
| 2026-04-25 08:12 | 51.38679 | -0.64256 | 36244 ft | 454 kts | 16° |
| 2026-04-25 08:13 | 51.44672 | -0.61087 | 36241 ft | 454 kts | 16° |
| 2026-04-25 08:14 | 51.53637 | -0.56330 | 36241 ft | 454 kts | 16° |
| 2026-04-25 08:14 | 51.59629 | -0.53139 | 36239 ft | 454 kts | 16° |
| 2026-04-25 08:15 | 51.65632 | -0.49933 | 36241 ft | 454 kts | 16° |
| 2026-04-25 08:15 | 51.71630 | -0.46722 | 36234 ft | 455 kts | 16° |
| 2026-04-25 08:16 | 51.77688 | -0.43681 | 35731 ft | 457 kts | 6° |
| 2026-04-25 08:16 | 51.80809 | -0.43625 | 35399 ft | 444 kts | 348° |
| 2026-04-25 08:16 | 51.83760 | -0.44898 | 34947 ft | 435 kts | 333° |
| 2026-04-25 08:16 | 51.86345 | -0.47220 | 34551 ft | 427 kts | 324° |
| 2026-04-25 08:17 | 51.88835 | -0.49809 | 34122 ft | 424 kts | 324° |
| 2026-04-25 08:17 | 51.91321 | -0.52355 | 33701 ft | 421 kts | 325° |
| 2026-04-25 08:17 | 51.93810 | -0.54832 | 33288 ft | 418 kts | 325° |
| 2026-04-25 08:17 | 51.96297 | -0.57264 | 32874 ft | 416 kts | 326° |
| 2026-04-25 08:18 | 51.98777 | -0.59676 | 32457 ft | 413 kts | 326° |
| 2026-04-25 08:18 | 52.01236 | -0.62068 | 32048 ft | 410 kts | 326° |
| 2026-04-25 08:18 | 52.03670 | -0.64443 | 31646 ft | 407 kts | 326° |
| 2026-04-25 08:18 | 52.06090 | -0.66811 | 31261 ft | 404 kts | 326° |
| 2026-04-25 08:19 | 52.08490 | -0.69163 | 30868 ft | 401 kts | 326° |
| 2026-04-25 08:19 | 52.10868 | -0.71497 | 30485 ft | 398 kts | 326° |
| 2026-04-25 08:19 | 52.13230 | -0.73818 | 30097 ft | 395 kts | 325° |
| 2026-04-25 08:19 | 52.15560 | -0.76119 | 29793 ft | 390 kts | 325° |
| 2026-04-25 08:20 | 52.17870 | -0.78410 | 29395 ft | 387 kts | 325° |
| 2026-04-25 08:20 | 52.20157 | -0.80681 | 29007 ft | 384 kts | 325° |
| 2026-04-25 08:20 | 52.22402 | -0.82908 | 28620 ft | 381 kts | 325° |
| 2026-04-25 08:20 | 52.24656 | -0.85149 | 28231 ft | 378 kts | 325° |
| 2026-04-25 08:21 | 52.26898 | -0.87377 | 27851 ft | 375 kts | 325° |
| 2026-04-25 08:21 | 52.29124 | -0.89583 | 27459 ft | 373 kts | 326° |
| 2026-04-25 08:21 | 52.31332 | -0.91772 | 27079 ft | 370 kts | 326° |
| 2026-04-25 08:21 | 52.33528 | -0.93951 | 26696 ft | 369 kts | 326° |
| 2026-04-25 08:22 | 52.35713 | -0.96124 | 26309 ft | 366 kts | 325° |
| 2026-04-25 08:22 | 52.37882 | -0.98283 | 25929 ft | 364 kts | 326° |
| 2026-04-25 08:22 | 52.40037 | -1.00433 | 25557 ft | 361 kts | 326° |
| 2026-04-25 08:22 | 52.42178 | -1.02571 | 25171 ft | 359 kts | 326° |
| 2026-04-25 08:23 | 52.44301 | -1.04692 | 24799 ft | 357 kts | 326° |
| 2026-04-25 08:23 | 52.46416 | -1.06808 | 24423 ft | 355 kts | 326° |
| 2026-04-25 08:23 | 52.48516 | -1.08911 | 24053 ft | 352 kts | 326° |
| 2026-04-25 08:23 | 52.50597 | -1.11009 | 23688 ft | 350 kts | 325° |
| 2026-04-25 08:24 | 52.52637 | -1.13079 | 23327 ft | 348 kts | 326° |
| 2026-04-25 08:24 | 52.54691 | -1.15165 | 22966 ft | 346 kts | 325° |
| 2026-04-25 08:24 | 52.56731 | -1.17239 | 22601 ft | 344 kts | 326° |
| 2026-04-25 08:24 | 52.58765 | -1.19298 | 22232 ft | 342 kts | 326° |
| 2026-04-25 08:25 | 52.60788 | -1.21344 | 21872 ft | 340 kts | 326° |
| 2026-04-25 08:25 | 52.62802 | -1.23384 | 21508 ft | 338 kts | 326° |
| 2026-04-25 08:25 | 52.64802 | -1.25411 | 21142 ft | 337 kts | 326° |
| 2026-04-25 08:25 | 52.66796 | -1.27437 | 20787 ft | 335 kts | 326° |
| 2026-04-25 08:26 | 52.68774 | -1.29448 | 20428 ft | 333 kts | 326° |
| 2026-04-25 08:26 | 52.70744 | -1.31453 | 20059 ft | 333 kts | 326° |
| 2026-04-25 08:26 | 52.72717 | -1.33459 | 19665 ft | 333 kts | 326° |
| 2026-04-25 08:26 | 52.74695 | -1.35470 | 19273 ft | 334 kts | 327° |
| 2026-04-25 08:27 | 52.76649 | -1.37460 | 18879 ft | 334 kts | 327° |
| 2026-04-25 08:27 | 52.78627 | -1.39476 | 18483 ft | 334 kts | 327° |
| 2026-04-25 08:27 | 52.80631 | -1.41525 | 18075 ft | 334 kts | 327° |
| 2026-04-25 08:27 | 52.82580 | -1.43516 | 17679 ft | 333 kts | 327° |
| 2026-04-25 08:28 | 52.84549 | -1.45531 | 17276 ft | 332 kts | 327° |
| 2026-04-25 08:28 | 52.86515 | -1.47544 | 16888 ft | 331 kts | 327° |
| 2026-04-25 08:28 | 52.88472 | -1.49550 | 16484 ft | 331 kts | 327° |
| 2026-04-25 08:28 | 52.90425 | -1.51554 | 16098 ft | 329 kts | 327° |
| 2026-04-25 08:29 | 52.92369 | -1.53552 | 15705 ft | 328 kts | 327° |
| 2026-04-25 08:29 | 52.94302 | -1.55541 | 15318 ft | 327 kts | 327° |
| 2026-04-25 08:29 | 52.96233 | -1.57531 | 14924 ft | 325 kts | 327° |
| 2026-04-25 08:29 | 52.98152 | -1.59509 | 14538 ft | 324 kts | 327° |
| 2026-04-25 08:30 | 53.00064 | -1.61481 | 14140 ft | 323 kts | 327° |
| 2026-04-25 08:30 | 53.01326 | -1.62784 | 13891 ft | 322 kts | 327° |
| 2026-04-25 08:30 | 53.03844 | -1.65388 | 13379 ft | 321 kts | 327° |
| 2026-04-25 08:30 | 53.05683 | -1.67457 | 12985 ft | 319 kts | 317° |
| 2026-04-25 08:31 | 53.07158 | -1.70182 | 12629 ft | 315 kts | 308° |
| 2026-04-25 08:31 | 53.08548 | -1.72996 | 12237 ft | 314 kts | 309° |
| 2026-04-25 08:31 | 53.09495 | -1.74877 | 11983 ft | 313 kts | 309° |
| 2026-04-25 08:31 | 53.10901 | -1.77636 | 11611 ft | 312 kts | 310° |
| 2026-04-25 08:32 | 53.12303 | -1.80371 | 11248 ft | 310 kts | 310° |
| 2026-04-25 08:32 | 53.13689 | -1.83066 | 10880 ft | 309 kts | 310° |
| 2026-04-25 08:32 | 53.15088 | -1.85785 | 10499 ft | 306 kts | 310° |
| 2026-04-25 08:32 | 53.16460 | -1.88454 | 10142 ft | 299 kts | 310° |
| 2026-04-25 08:33 | 53.17768 | -1.91005 | 10161 ft | 281 kts | 310° |
| 2026-04-25 08:33 | 53.19019 | -1.93442 | 9924 ft | 273 kts | 310° |
| 2026-04-25 08:33 | 53.20245 | -1.95837 | 9636 ft | 271 kts | 310° |
| 2026-04-25 08:33 | 53.21468 | -1.98226 | 9312 ft | 270 kts | 310° |
| 2026-04-25 08:34 | 53.22690 | -2.00619 | 8985 ft | 270 kts | 310° |
| 2026-04-25 08:34 | 53.23627 | -2.03294 | 8627 ft | 270 kts | 283° |
| 2026-04-25 08:34 | 53.23555 | -2.06371 | 8328 ft | 268 kts | 253° |
| 2026-04-25 08:34 | 53.22919 | -2.09293 | 8021 ft | 267 kts | 250° |
| 2026-04-25 08:35 | 53.22267 | -2.12194 | 7700 ft | 267 kts | 250° |
| 2026-04-25 08:35 | 53.21619 | -2.15063 | 7375 ft | 267 kts | 250° |
| 2026-04-25 08:35 | 53.20963 | -2.17956 | 7049 ft | 266 kts | 250° |
| 2026-04-25 08:35 | 53.20308 | -2.20853 | 6724 ft | 264 kts | 250° |
| 2026-04-25 08:36 | 53.19668 | -2.23676 | 6460 ft | 257 kts | 250° |
| 2026-04-25 08:36 | 53.19037 | -2.26447 | 6209 ft | 252 kts | 250° |
| 2026-04-25 08:36 | 53.18423 | -2.29148 | 5951 ft | 247 kts | 250° |
| 2026-04-25 08:36 | 53.17819 | -2.31805 | 5702 ft | 243 kts | 250° |
| 2026-04-25 08:37 | 53.17229 | -2.34411 | 5444 ft | 238 kts | 250° |
| 2026-04-25 08:37 | 53.16649 | -2.36983 | 5276 ft | 236 kts | 250° |
| 2026-04-25 08:37 | 53.16066 | -2.39559 | 5091 ft | 236 kts | 250° |
| 2026-04-25 08:37 | 53.15515 | -2.42078 | 4895 ft | 227 kts | 255° |
| 2026-04-25 08:38 | 53.15212 | -2.44618 | 4685 ft | 219 kts | 260° |
| 2026-04-25 08:38 | 53.14941 | -2.47080 | 4476 ft | 212 kts | 260° |
| 2026-04-25 08:38 | 53.14921 | -2.49437 | 4231 ft | 205 kts | 291° |
| 2026-04-25 08:38 | 53.15819 | -2.51137 | 4039 ft | 196 kts | 336° |
| 2026-04-25 08:39 | 53.17122 | -2.51572 | 3888 ft | 189 kts | 352° |
| 2026-04-25 08:39 | 53.18423 | -2.51875 | 3661 ft | 187 kts | 351° |
| 2026-04-25 08:39 | 53.19709 | -2.52183 | 3461 ft | 187 kts | 351° |
| 2026-04-25 08:39 | 53.20999 | -2.52494 | 3230 ft | 188 kts | 351° |
| 2026-04-25 08:40 | 53.22289 | -2.52620 | 3043 ft | 188 kts | 11° |
| 2026-04-25 08:40 | 53.23350 | -2.51427 | 3015 ft | 189 kts | 52° |
| 2026-04-25 08:40 | 53.24154 | -2.49662 | 2931 ft | 193 kts | 50° |
| 2026-04-25 08:40 | 53.25023 | -2.47902 | 2709 ft | 198 kts | 50° |
| 2026-04-25 08:41 | 53.25890 | -2.46125 | 2462 ft | 197 kts | 50° |
| 2026-04-25 08:41 | 53.26752 | -2.44338 | 2188 ft | 197 kts | 50° |
| 2026-04-25 08:41 | 53.27608 | -2.42578 | 1934 ft | 194 kts | 50° |
| 2026-04-25 08:41 | 53.28455 | -2.40830 | 1685 ft | 191 kts | 51° |
| 2026-04-25 08:42 | 53.29270 | -2.39143 | 1433 ft | 186 kts | 51° |
| 2026-04-25 08:42 | 53.30065 | -2.37506 | 1182 ft | 177 kts | 51° |
| 2026-04-25 08:42 | 53.30818 | -2.35953 | 954 ft | 166 kts | 51° |
| 2026-04-25 08:42 | 53.31524 | -2.34497 | 762 ft | 155 kts | 51° |
| 2026-04-25 08:43 | 53.32181 | -2.33141 | 548 ft | 147 kts | 51° |
| 2026-04-25 08:43 | 53.32819 | -2.31834 | 381 ft | 142 kts | 50° |
| 2026-04-25 08:43 | 53.33446 | -2.30543 | 264 ft | 141 kts | 53° |
| 2026-04-25 08:43 | 53.34011 | -2.29360 | 230 ft | 118 kts | 54° |
| 2026-04-25 08:44 | 53.34426 | -2.28530 | 226 ft | 61 kts | 50° |
| 2026-04-25 08:44 | 53.34633 | -2.28222 | 229 ft | 17 kts | 27° |
| 2026-04-25 08:44 | 53.34737 | -2.28153 | 230 ft | 16 kts | 21° |
| 2026-04-25 08:44 | 53.34842 | -2.28081 | 228 ft | 18 kts | 22° |
| 2026-04-25 08:45 | 53.34943 | -2.27970 | 229 ft | 18 kts | 5° |
| 2026-04-25 08:45 | 53.35043 | -2.28083 | 233 ft | 17 kts | 320° |
| 2026-04-25 08:45 | 53.35141 | -2.28201 | 229 ft | 18 kts | 338° |
| 2026-04-25 08:45 | 53.35259 | -2.28190 | 231 ft | 17 kts | 6° |
| 2026-04-25 08:46 | 53.35374 | -2.28168 | 234 ft | 16 kts | 4° |
| 2026-04-25 08:46 | 53.35485 | -2.28133 | 233 ft | 17 kts | 24° |
| 2026-04-25 08:46 | 53.35571 | -2.28009 | 236 ft | 16 kts | 50° |
| 2026-04-25 08:46 | 53.35649 | -2.27886 | 241 ft | 15 kts | 12° |
| 2026-04-25 08:47 | 53.35754 | -2.27875 | 247 ft | 15 kts | 4° |
| 2026-04-25 08:47 | 53.35855 | -2.27858 | 252 ft | 14 kts | 4° |
| 2026-04-25 08:47 | 53.35955 | -2.27861 | 254 ft | 16 kts | 340° |
| 2026-04-25 08:47 | 53.36049 | -2.27986 | 254 ft | 18 kts | 318° |
| 2026-04-25 08:48 | 53.36139 | -2.28124 | 254 ft | 17 kts | 316° |
| 2026-04-25 08:48 | 53.36222 | -2.28266 | 254 ft | 17 kts | 315° |
| 2026-04-25 08:48 | 53.36303 | -2.28400 | 254 ft | 16 kts | 315° |
| 2026-04-25 08:48 | 53.36396 | -2.28490 | 254 ft | 15 kts | 349° |
| 2026-04-25 08:49 | 53.36480 | -2.28589 | 254 ft | 15 kts | 314° |
| 2026-04-25 08:49 | 53.36550 | -2.28711 | 254 ft | 14 kts | 316° |
| 2026-04-25 08:49 | 53.36629 | -2.28783 | 254 ft | 13 kts | 27° |
| 2026-04-25 08:49 | 53.36683 | -2.28717 | 254 ft | 6 kts | 353° |
| 2026-04-25 08:50 | 53.36712 | -2.28760 | 254 ft | 6 kts | 315° |
| 2026-04-25 08:50 | 53.36728 | -2.28786 | 254 ft | 0 kts | 315° |
| 2026-04-25 08:50 | 53.36730 | -2.28789 | 254 ft | 0 kts | 315° |
| 2026-04-25 08:50 | 53.36732 | -2.28792 | 254 ft | 0 kts | 315° |
| 2026-04-25 08:51 | 53.36733 | -2.28795 | 254 ft | 0 kts | 315° |
| 2026-04-25 08:51 | 53.36734 | -2.28797 | 254 ft | 0 kts | 315° |